Camden, Missouri
Current Conditions -  °F | °C
As of 11:35 AM on Friday 31 Oct 2014 (Local Time) from KGPH Reporting Station
NA  
Wind Chill: 29°   Ceiling: NA
Heat Index: 37°   Visibility: 10mi
Dew Point: 19°   Wind: 14mph
Humidity: 48%   Direction: 350°N
Pressure: 30.5"   Gusts: 21mph
Location:  39.2°N, 94.02°W
Report Text: KGPH 311635Z AUTO 35012G18KT 10SM 03/M07 A3050 RMK AO2
Loading
Personal Weather Stations






























Interactive Weather Map
Tropical Storm Tracking
New forecast layout! Learn more

10-Day Weather Forecast

Advertisements
Track Severe Weather on mobile